createdAt,value
2022-11-29T00:01:45.018Z,9.43
2022-11-29T00:04:13.913Z,9.50
2022-11-29T00:06:42.748Z,8.70
2022-11-29T00:09:14.306Z,8.88
2022-11-29T00:12:01.972Z,8.63
2022-11-29T00:14:31.331Z,9.30
2022-11-29T00:17:05.208Z,8.50
2022-11-29T00:19:35.891Z,8.90
2022-11-29T00:22:05.671Z,8.32
2022-11-29T00:24:35.625Z,9.40
2022-11-29T00:27:04.477Z,8.68
2022-11-29T00:29:34.951Z,8.30
2022-11-29T00:32:04.490Z,9.20
2022-11-29T00:34:33.236Z,10.50
2022-11-29T00:37:02.071Z,10.30
2022-11-29T00:39:31.495Z,10.13
2022-11-29T00:42:00.088Z,10.32
2022-11-29T00:44:28.806Z,11.23
2022-11-29T00:46:57.813Z,10.77
2022-11-29T00:49:26.804Z,11.97
2022-11-29T00:51:55.369Z,12.00
2022-11-29T00:54:24.456Z,11.45
2022-11-29T00:56:53.797Z,11.30
2022-11-29T00:59:23.194Z,10.80
2022-11-29T01:01:52.170Z,10.60
2022-11-29T01:04:21.108Z,10.65
2022-11-29T01:06:54.262Z,9.95
2022-11-29T01:09:23.231Z,10.00
2022-11-29T01:11:52.128Z,10.30
2022-11-29T01:14:21.195Z,10.05
2022-11-29T01:16:49.861Z,9.95
2022-11-29T01:19:18.845Z,10.18
2022-11-29T01:21:48.619Z,8.70
2022-11-29T01:24:17.616Z,9.73
2022-11-29T01:26:46.597Z,9.57
2022-11-29T01:29:16.439Z,9.63
2022-11-29T01:31:45.114Z,8.98
2022-11-29T01:34:14.010Z,8.65
2022-11-29T01:36:42.724Z,8.85
2022-11-29T01:39:11.926Z,8.02
2022-11-29T01:41:40.724Z,9.10
2022-11-29T01:44:15.536Z,8.13
2022-11-29T01:46:47.359Z,8.00
2022-11-29T01:49:30.328Z,7.70
2022-11-29T01:52:07.832Z,7.43
2022-11-29T01:54:41.177Z,7.57
2022-11-29T01:57:10.990Z,7.65
2022-11-29T01:59:45.001Z,8.18
2022-11-29T02:02:35.411Z,8.30
2022-11-29T02:05:06.322Z,9.23
2022-11-29T02:07:35.367Z,9.15
2022-11-29T02:10:05.546Z,9.50
2022-11-29T02:12:39.501Z,9.85
2022-11-29T02:15:32.725Z,10.25
2022-11-29T02:18:22.257Z,10.43
2022-11-29T02:21:29.190Z,8.68
2022-11-29T02:24:54.845Z,7.35
2022-11-29T02:27:35.350Z,8.13
2022-11-29T02:30:34.576Z,8.20
2022-11-29T02:33:24.642Z,7.88
2022-11-29T02:36:22.972Z,10.55
2022-11-29T02:39:15.368Z,8.57
2022-11-29T02:42:31.510Z,8.52
2022-11-29T02:45:15.671Z,8.80
2022-11-29T02:48:11.781Z,9.03
2022-11-29T02:50:51.184Z,8.13
2022-11-29T02:53:52.405Z,8.67
2022-11-29T02:56:42.719Z,8.38
2022-11-29T02:59:22.528Z,8.77
2022-11-29T03:02:19.570Z,8.05
2022-11-29T03:04:59.791Z,8.00
2022-11-29T03:07:52.083Z,8.07
2022-11-29T03:10:32.737Z,8.80
2022-11-29T03:13:06.584Z,8.25
2022-11-29T03:15:39.880Z,8.90
2022-11-29T03:18:09.599Z,9.18
2022-11-29T03:20:53.382Z,8.55
2022-11-29T03:23:46.136Z,8.55
2022-11-29T03:26:17.684Z,8.48
2022-11-29T03:29:08.714Z,8.40
2022-11-29T03:31:52.562Z,8.80
2022-11-29T03:34:33.312Z,10.00
2022-11-29T03:37:26.988Z,9.10
2022-11-29T03:40:11.860Z,8.67
2022-11-29T03:42:52.124Z,9.30
2022-11-29T03:45:39.418Z,8.75
2022-11-29T03:48:18.930Z,9.30
2022-11-29T03:50:55.909Z,8.20
2022-11-29T03:53:49.301Z,8.10
2022-11-29T03:56:30.045Z,7.93
2022-11-29T03:59:26.477Z,7.95
2022-11-29T04:02:13.456Z,8.48
2022-11-29T04:05:09.736Z,7.75
2022-11-29T04:07:53.693Z,7.88
2022-11-29T04:10:46.893Z,9.07
2022-11-29T04:13:43.011Z,10.67
2022-11-29T04:16:33.795Z,12.25
2022-11-29T04:19:39.290Z,12.27
2022-11-29T04:22:44.614Z,11.75
2022-11-29T04:25:19.457Z,11.68
2022-11-29T04:27:55.773Z,12.45
2022-11-29T04:30:26.702Z,11.93
2022-11-29T04:33:08.575Z,12.68
2022-11-29T04:35:40.622Z,12.20
2022-11-29T04:38:44.335Z,12.25
2022-11-29T04:41:46.460Z,12.55
2022-11-29T04:44:24.367Z,12.35
2022-11-29T04:47:35.295Z,11.77
2022-11-29T04:50:25.230Z,12.82
2022-11-29T04:53:25.679Z,12.73
2022-11-29T04:55:58.367Z,12.20
2022-11-29T04:58:36.647Z,11.60
2022-11-29T05:01:31.685Z,12.27
2022-11-29T05:04:23.419Z,11.88
2022-11-29T05:07:20.988Z,11.40
2022-11-29T05:10:00.646Z,9.32
2022-11-29T05:12:59.707Z,7.90
2022-11-29T05:16:05.754Z,7.95
2022-11-29T05:18:50.334Z,8.18
2022-11-29T05:21:40.186Z,7.13
2022-11-29T05:24:33.888Z,7.88
2022-11-29T05:27:23.629Z,7.50
2022-11-29T05:30:13.225Z,7.57
2022-11-29T05:33:00.754Z,8.05
2022-11-29T05:35:48.980Z,7.50
2022-11-29T05:38:46.229Z,7.40
2022-11-29T05:41:46.317Z,7.80
2022-11-29T05:44:41.549Z,7.28
2022-11-29T05:47:12.452Z,8.15
2022-11-29T05:50:08.252Z,8.20
2022-11-29T05:52:54.777Z,7.50
2022-11-29T05:56:14.622Z,8.27
2022-11-29T05:58:52.185Z,7.80
2022-11-29T06:01:25.876Z,7.50
2022-11-29T06:04:13.205Z,7.70
2022-11-29T06:07:24.777Z,7.13
2022-11-29T06:10:07.946Z,6.55
2022-11-29T06:12:37.274Z,7.00
2022-11-29T06:15:41.859Z,6.90
2022-11-29T06:18:17.527Z,7.10
2022-11-29T06:21:01.580Z,6.72
2022-11-29T06:24:08.910Z,7.03
2022-11-29T06:27:10.875Z,6.60
2022-11-29T06:29:52.023Z,17.80
2022-11-29T06:32:57.795Z,9.57
2022-11-29T06:35:48.486Z,7.15
2022-11-29T06:38:28.203Z,7.07
2022-11-29T06:41:02.339Z,6.87
2022-11-29T06:43:32.635Z,5.07
2022-11-29T06:46:14.493Z,6.13
2022-11-29T06:49:15.782Z,11.35
2022-11-29T06:52:09.069Z,10.15
2022-11-29T06:55:02.300Z,10.50
2022-11-29T06:58:00.574Z,8.27
2022-11-29T07:00:48.757Z,8.38
2022-11-29T07:03:33.299Z,8.95
2022-11-29T07:06:12.966Z,6.93
2022-11-29T07:08:42.483Z,6.63
2022-11-29T07:11:15.390Z,6.88
2022-11-29T07:13:44.850Z,6.18
2022-11-29T07:16:36.492Z,6.38
2022-11-29T07:19:20.091Z,6.65
2022-11-29T07:22:06.266Z,7.07
2022-11-29T07:24:59.961Z,6.53
2022-11-29T07:27:42.739Z,6.53
2022-11-29T07:30:17.454Z,7.05
2022-11-29T07:33:00.324Z,7.18
2022-11-29T07:35:50.566Z,6.65
2022-11-29T07:38:32.074Z,7.07
2022-11-29T07:41:07.067Z,6.60
2022-11-29T07:43:42.062Z,6.53
2022-11-29T07:46:11.452Z,5.53
2022-11-29T07:48:40.066Z,6.35
2022-11-29T07:51:09.154Z,6.53
2022-11-29T07:53:43.410Z,6.45
2022-11-29T07:56:13.412Z,7.28
2022-11-29T07:58:42.178Z,7.27
2022-11-29T08:01:11.455Z,6.90
2022-11-29T08:03:42.128Z,7.77
2022-11-29T08:06:11.274Z,7.55
2022-11-29T08:08:43.997Z,7.97
2022-11-29T08:14:01.987Z,7.93
2022-11-29T08:16:31.154Z,7.93
2022-11-29T08:18:59.921Z,8.35
2022-11-29T08:21:29.526Z,8.48
2022-11-29T08:23:58.339Z,8.38
2022-11-29T08:26:31.384Z,8.50
2022-11-29T08:29:00.871Z,8.10
2022-11-29T08:31:29.541Z,8.27
2022-11-29T08:33:58.590Z,7.53
2022-11-29T08:36:27.549Z,8.07
2022-11-29T08:39:07.538Z,7.78
2022-11-29T08:41:37.983Z,8.07
2022-11-29T08:44:07.589Z,7.68
2022-11-29T08:46:54.758Z,7.80
2022-11-29T08:49:24.086Z,7.75
2022-11-29T08:52:14.426Z,8.10
2022-11-29T08:54:44.183Z,7.85
2022-11-29T09:00:02.095Z,8.10
2022-11-29T09:02:30.779Z,8.07
2022-11-29T09:04:59.607Z,8.13
2022-11-29T09:07:28.370Z,9.07
2022-11-29T09:09:57.248Z,8.15
2022-11-29T09:12:26.203Z,8.45
2022-11-29T09:14:55.099Z,7.88
2022-11-29T09:17:23.768Z,8.68
2022-11-29T09:19:52.558Z,8.80
2022-11-29T09:22:21.393Z,8.98
2022-11-29T09:24:50.265Z,8.50
2022-11-29T09:27:18.968Z,8.73
2022-11-29T09:29:48.770Z,8.45
2022-11-29T09:32:17.609Z,9.32
2022-11-29T09:34:46.916Z,8.80
2022-11-29T09:37:16.006Z,10.23
2022-11-29T09:39:44.925Z,8.77
2022-11-29T09:42:55.605Z,9.32
2022-11-29T09:45:44.327Z,9.40
2022-11-29T09:48:16.104Z,8.32
2022-11-29T09:50:59.765Z,8.80
2022-11-29T09:53:55.725Z,7.93
2022-11-29T09:56:44.760Z,8.23
2022-11-29T09:59:24.635Z,8.30
2022-11-29T10:02:21.040Z,8.50
2022-11-29T10:04:56.487Z,8.38
2022-11-29T10:07:39.464Z,8.50
2022-11-29T10:10:12.744Z,7.88
2022-11-29T10:12:47.867Z,7.63
2022-11-29T10:15:26.895Z,7.80
2022-11-29T10:18:45.170Z,8.30
2022-11-29T10:21:21.651Z,7.88
2022-11-29T10:23:59.278Z,7.78
2022-11-29T10:26:34.853Z,7.75
2022-11-29T10:29:04.428Z,8.05
2022-11-29T10:31:44.247Z,8.13
2022-11-29T10:34:15.877Z,8.45
2022-11-29T10:36:49.722Z,8.77
2022-11-29T10:40:05.165Z,7.70
2022-11-29T10:42:50.142Z,8.23
2022-11-29T10:46:01.037Z,8.60
2022-11-29T10:48:34.509Z,8.73
2022-11-29T10:51:04.362Z,8.88
2022-11-29T10:53:37.976Z,7.93
2022-11-29T10:56:15.299Z,8.70
2022-11-29T10:59:21.301Z,8.98
2022-11-29T11:01:50.424Z,9.48
2022-11-29T11:04:28.984Z,8.63
2022-11-29T11:07:02.140Z,8.80
2022-11-29T11:09:43.268Z,8.40
2022-11-29T11:12:21.992Z,8.50
2022-11-29T11:14:52.437Z,9.60
2022-11-29T11:17:26.982Z,14.17
2022-11-29T11:20:03.201Z,15.95
2022-11-29T11:22:33.905Z,13.97
2022-11-29T11:25:07.426Z,11.55
2022-11-29T11:27:41.180Z,9.75
2022-11-29T11:30:24.500Z,9.25
2022-11-29T11:33:09.522Z,8.97
2022-11-29T11:35:38.785Z,10.55
2022-11-29T11:38:16.074Z,9.80
2022-11-29T11:40:46.113Z,7.72
2022-11-29T11:43:21.400Z,8.98
2022-11-29T11:45:55.786Z,8.77
2022-11-29T11:48:25.390Z,9.43
2022-11-29T11:51:00.596Z,8.23
2022-11-29T11:53:36.725Z,8.23
2022-11-29T11:56:09.506Z,8.73
2022-11-29T11:58:52.948Z,8.53
2022-11-29T12:01:26.777Z,8.52
2022-11-29T12:04:07.669Z,8.68
2022-11-29T12:06:53.508Z,8.52
2022-11-29T12:09:48.538Z,8.77
2022-11-29T12:12:24.555Z,9.70
2022-11-29T12:15:00.115Z,9.63
2022-11-29T12:17:29.059Z,10.48
2022-11-29T12:20:23.505Z,8.95
2022-11-29T12:23:11.964Z,9.73
2022-11-29T12:26:01.820Z,8.90
2022-11-29T12:28:36.957Z,9.70
2022-11-29T12:31:38.746Z,10.43
2022-11-29T12:34:35.852Z,9.10
2022-11-29T12:37:23.582Z,10.32
2022-11-29T12:40:38.382Z,9.47
2022-11-29T12:43:19.192Z,8.93
2022-11-29T12:46:32.048Z,8.70
2022-11-29T12:49:19.661Z,8.05
2022-11-29T12:52:10.302Z,7.43
2022-11-29T12:55:17.008Z,7.95
2022-11-29T12:57:54.962Z,7.93
2022-11-29T13:01:01.268Z,8.13
2022-11-29T13:04:01.341Z,7.75
2022-11-29T13:06:43.661Z,7.30
2022-11-29T13:09:47.238Z,7.13
2022-11-29T13:12:42.002Z,7.03
2022-11-29T13:16:07.854Z,7.43
2022-11-29T13:18:51.428Z,7.95
2022-11-29T13:21:36.107Z,8.20
2022-11-29T13:24:13.422Z,8.27
2022-11-29T13:26:45.129Z,7.55
2022-11-29T13:29:18.039Z,8.00
2022-11-29T13:31:49.100Z,7.88
2022-11-29T13:34:50.187Z,7.60
2022-11-29T13:37:28.703Z,7.65
2022-11-29T13:40:39.340Z,7.90
2022-11-29T13:43:19.001Z,9.65
2022-11-29T13:45:53.606Z,15.50
2022-11-29T13:48:51.661Z,22.90
2022-11-29T13:51:38.841Z,23.90
2022-11-29T13:54:47.569Z,24.95
2022-11-29T13:57:17.961Z,28.40
2022-11-29T13:59:53.300Z,26.70
2022-11-29T14:02:30.623Z,24.50
2022-11-29T14:05:06.329Z,23.02
2022-11-29T14:07:37.524Z,21.13
2022-11-29T14:10:29.118Z,18.93
2022-11-29T14:13:02.733Z,16.63
2022-11-29T14:15:34.218Z,14.40
2022-11-29T14:18:10.774Z,13.68
2022-11-29T14:20:46.598Z,13.25
2022-11-29T14:23:17.633Z,13.02
2022-11-29T14:25:58.582Z,12.07
2022-11-29T14:28:32.889Z,12.15
2022-11-29T14:31:03.163Z,12.07
2022-11-29T14:34:09.878Z,11.30
2022-11-29T14:37:09.382Z,10.32
2022-11-29T14:39:50.961Z,11.23
2022-11-29T14:42:48.742Z,10.45
2022-11-29T14:45:41.002Z,10.75
2022-11-29T14:48:33.249Z,12.23
2022-11-29T14:51:32.682Z,13.97
2022-11-29T14:54:08.161Z,14.07
2022-11-29T14:56:43.963Z,15.17
2022-11-29T14:59:41.964Z,15.82
2022-11-29T15:02:35.701Z,13.38
2022-11-29T15:05:45.052Z,12.93
2022-11-29T15:08:45.707Z,14.40
2022-11-29T15:11:37.092Z,12.18
2022-11-29T15:14:46.681Z,11.75
2022-11-29T15:18:02.120Z,13.57
2022-11-29T15:20:59.122Z,14.13
2022-11-29T15:23:34.433Z,13.20
2022-11-29T15:26:03.622Z,13.40
2022-11-29T15:28:39.492Z,14.07
2022-11-29T15:31:21.543Z,14.10
2022-11-29T15:33:56.825Z,12.75
2022-11-29T15:36:29.206Z,12.48
2022-11-29T15:39:01.544Z,13.98
2022-11-29T15:41:42.773Z,13.15
2022-11-29T15:44:24.383Z,11.80
2022-11-29T15:47:28.771Z,10.68
2022-11-29T15:50:17.713Z,10.93
2022-11-29T15:52:48.824Z,11.60
2022-11-29T15:55:24.962Z,10.20
2022-11-29T15:58:07.047Z,10.40
2022-11-29T16:00:38.548Z,10.57
2022-11-29T16:03:21.946Z,10.52
2022-11-29T16:05:57.260Z,10.60
2022-11-29T16:08:31.067Z,9.70
2022-11-29T16:11:01.558Z,9.90
2022-11-29T16:13:36.214Z,9.70
2022-11-29T16:16:18.767Z,9.43
2022-11-29T16:18:50.548Z,9.82
2022-11-29T16:21:27.035Z,9.88
2022-11-29T16:23:57.956Z,9.90
2022-11-29T16:26:33.703Z,9.50
2022-11-29T16:29:11.984Z,9.85
2022-11-29T16:31:42.858Z,10.45
2022-11-29T16:34:32.983Z,10.95
2022-11-29T16:37:05.905Z,11.15
2022-11-29T16:39:49.637Z,11.07
2022-11-29T16:42:28.390Z,10.93
2022-11-29T16:45:28.214Z,11.32
2022-11-29T16:48:01.567Z,10.17
2022-11-29T16:50:34.343Z,10.40
2022-11-29T16:53:37.305Z,10.05
2022-11-29T16:56:09.783Z,9.65
2022-11-29T16:59:16.596Z,10.00
2022-11-29T17:01:32.464Z,10.85
2022-11-29T17:04:05.170Z,12.25
2022-11-29T17:06:36.845Z,18.08
2022-11-29T17:09:06.977Z,13.43
2022-11-29T17:11:36.097Z,14.05
2022-11-29T17:14:05.302Z,15.93
2022-11-29T17:16:34.375Z,22.02
2022-11-29T17:19:03.383Z,17.55
2022-11-29T17:21:33.288Z,18.10
2022-11-29T17:24:02.440Z,24.02
2022-11-29T17:26:31.353Z,19.50
2022-11-29T17:29:00.604Z,19.92
2022-11-29T17:31:30.853Z,17.75
2022-11-29T17:34:01.808Z,32.10
2022-11-29T17:36:31.668Z,32.42
2022-11-29T17:39:01.629Z,17.07
2022-11-29T17:41:33.875Z,13.50
2022-11-29T17:44:03.384Z,9.18
2022-11-29T17:46:35.627Z,9.00
2022-11-29T17:49:09.087Z,8.07
2022-11-29T17:51:56.992Z,7.35
2022-11-29T17:54:26.933Z,10.40
2022-11-29T17:56:57.403Z,34.83
2022-11-29T17:59:26.562Z,31.30
2022-11-29T18:01:56.024Z,32.30
2022-11-29T18:04:25.606Z,13.10
2022-11-29T18:06:55.676Z,9.88
2022-11-29T18:09:24.815Z,9.05
2022-11-29T18:11:56.157Z,8.93
2022-11-29T18:14:29.235Z,8.40
2022-11-29T18:16:58.429Z,9.68
2022-11-29T18:19:27.319Z,10.20
2022-11-29T18:21:57.039Z,11.37
2022-11-29T18:24:28.522Z,11.73
2022-11-29T18:26:57.685Z,11.30
2022-11-29T18:29:26.693Z,12.90
2022-11-29T18:31:56.916Z,13.47
2022-11-29T18:34:25.759Z,10.07
2022-11-29T18:36:55.010Z,8.02
2022-11-29T18:39:26.196Z,9.85
2022-11-29T18:41:55.850Z,8.30
2022-11-29T18:44:31.724Z,11.07
2022-11-29T18:47:02.822Z,11.70
2022-11-29T18:49:31.984Z,11.50
2022-11-29T18:52:00.782Z,11.60
2022-11-29T18:54:31.904Z,10.40
2022-11-29T18:57:01.038Z,9.80
2022-11-29T18:59:29.871Z,7.72
2022-11-29T19:01:59.062Z,7.25
2022-11-29T19:04:27.982Z,6.43
2022-11-29T19:06:57.052Z,7.25
2022-11-29T19:09:26.050Z,7.72
2022-11-29T19:11:55.230Z,10.10
2022-11-29T19:14:25.414Z,9.13
2022-11-29T19:16:54.454Z,9.50
2022-11-29T19:19:26.355Z,9.60
2022-11-29T19:21:55.655Z,10.68
2022-11-29T19:24:27.997Z,10.57
2022-11-29T19:26:59.008Z,10.90
2022-11-29T19:29:28.496Z,10.70
2022-11-29T19:31:58.196Z,10.77
2022-11-29T19:34:29.393Z,11.48
2022-11-29T19:36:58.519Z,11.00
2022-11-29T19:39:28.678Z,10.93
2022-11-29T19:41:59.368Z,10.90
2022-11-29T19:44:30.046Z,10.50
2022-11-29T19:46:59.244Z,10.75
2022-11-29T19:49:28.266Z,10.80
2022-11-29T19:51:57.194Z,12.00
2022-11-29T19:54:25.930Z,11.47
2022-11-29T19:56:56.611Z,10.13
2022-11-29T19:59:25.923Z,10.43
2022-11-29T20:01:54.893Z,9.60
2022-11-29T20:04:23.737Z,10.02
2022-11-29T20:06:52.934Z,10.00
2022-11-29T20:09:23.273Z,9.25
2022-11-29T20:11:52.899Z,10.77
2022-11-29T20:14:21.588Z,10.30
2022-11-29T20:16:51.766Z,10.48
2022-11-29T20:19:20.713Z,10.35
2022-11-29T20:21:50.520Z,10.13
2022-11-29T20:24:20.385Z,10.20
2022-11-29T20:26:50.347Z,9.77
2022-11-29T20:29:20.304Z,10.10
2022-11-29T20:31:50.928Z,9.98
2022-11-29T20:34:20.943Z,9.37
2022-11-29T20:37:26.324Z,9.57
2022-11-29T20:40:02.635Z,9.90
2022-11-29T20:42:40.480Z,9.77
2022-11-29T20:45:14.887Z,9.40
2022-11-29T20:47:59.001Z,9.15
2022-11-29T20:50:31.381Z,8.30
2022-11-29T20:53:03.367Z,8.25
2022-11-29T20:55:32.359Z,7.32
2022-11-29T20:58:01.167Z,6.95
2022-11-29T21:00:30.179Z,6.88
2022-11-29T21:02:58.955Z,6.65
2022-11-29T21:05:29.057Z,6.55
2022-11-29T21:07:58.974Z,6.32
2022-11-29T21:10:27.873Z,6.60
2022-11-29T21:12:57.573Z,7.03
2022-11-29T21:15:26.848Z,7.70
2022-11-29T21:17:55.964Z,7.18
2022-11-29T21:20:26.973Z,7.17
2022-11-29T21:23:12.755Z,7.53
2022-11-29T21:26:15.994Z,7.00
2022-11-29T21:28:58.887Z,7.43
2022-11-29T21:31:28.818Z,7.00
2022-11-29T21:33:57.787Z,7.68
2022-11-29T21:36:26.730Z,7.07
2022-11-29T21:38:55.735Z,6.85
2022-11-29T21:41:26.022Z,6.90
2022-11-29T21:44:09.734Z,6.80
2022-11-29T21:46:39.010Z,6.40
2022-11-29T21:49:07.967Z,6.53
2022-11-29T21:51:36.954Z,6.22
2022-11-29T21:54:06.045Z,6.05
2022-11-29T21:56:34.939Z,6.03
2022-11-29T21:59:03.566Z,5.85
2022-11-29T22:01:34.612Z,5.25
2022-11-29T22:04:04.524Z,5.82
2022-11-29T22:06:33.403Z,6.23
2022-11-29T22:09:02.922Z,6.83
2022-11-29T22:11:32.382Z,7.40
2022-11-29T22:14:15.398Z,7.38
2022-11-29T22:16:53.129Z,7.80
2022-11-29T22:19:24.545Z,7.75
2022-11-29T22:21:56.396Z,7.40
2022-11-29T22:24:28.218Z,8.30
2022-11-29T22:26:57.818Z,7.93
2022-11-29T22:29:27.305Z,7.93
2022-11-29T22:31:58.141Z,7.95
2022-11-29T22:34:28.571Z,7.80
2022-11-29T22:36:57.458Z,6.82
2022-11-29T22:39:26.606Z,7.65
2022-11-29T22:41:55.636Z,6.77
2022-11-29T22:44:25.469Z,7.32
2022-11-29T22:46:54.442Z,6.97
2022-11-29T22:49:23.396Z,7.15
2022-11-29T22:51:53.205Z,7.13
2022-11-29T22:54:22.367Z,6.70
2022-11-29T22:56:51.118Z,7.13
2022-11-29T22:59:19.847Z,7.30
2022-11-29T23:01:48.953Z,6.97
2022-11-29T23:04:17.737Z,6.70
2022-11-29T23:06:47.919Z,6.47
2022-11-29T23:09:22.428Z,6.93
2022-11-29T23:11:57.051Z,6.82
2022-11-29T23:14:26.290Z,6.88
2022-11-29T23:16:55.205Z,6.82
2022-11-29T23:19:24.016Z,6.60
2022-11-29T23:21:52.941Z,5.75
2022-11-29T23:24:21.751Z,6.13
2022-11-29T23:26:50.431Z,6.20
2022-11-29T23:29:20.842Z,5.82
2022-11-29T23:31:50.189Z,5.68
2022-11-29T23:34:18.882Z,5.70
2022-11-29T23:36:52.680Z,6.13
2022-11-29T23:39:22.249Z,6.53
2022-11-29T23:41:50.946Z,6.00
2022-11-29T23:44:19.861Z,5.80
2022-11-29T23:46:48.557Z,5.73
2022-11-29T23:49:17.425Z,6.20
2022-11-29T23:51:46.059Z,6.20
2022-11-29T23:54:14.925Z,5.80
2022-11-29T23:56:43.650Z,5.80
2022-11-29T23:59:12.497Z,6.20
